createdAt,value
2024-01-20T00:00:58.648Z,-0.34
2024-01-20T00:03:46.708Z,-0.37
2024-01-20T00:06:15.089Z,-0.36
2024-01-20T00:08:43.326Z,-0.35
2024-01-20T00:11:11.490Z,-0.34
2024-01-20T00:13:40.008Z,-0.32
2024-01-20T00:16:08.152Z,-0.29
2024-01-20T00:18:36.639Z,-0.29
2024-01-20T00:21:05.102Z,-0.30
2024-01-20T00:23:33.158Z,-0.30
2024-01-20T00:26:01.325Z,-0.31
2024-01-20T00:28:29.739Z,-0.31
2024-01-20T00:30:57.914Z,-0.30
2024-01-20T00:33:27.317Z,-0.29
2024-01-20T00:35:55.920Z,-0.31
2024-01-20T00:38:24.074Z,-0.33
2024-01-20T00:40:52.550Z,-0.34
2024-01-20T00:43:20.716Z,-0.34
2024-01-20T00:45:49.148Z,-0.32
2024-01-20T00:48:17.209Z,-0.32
2024-01-20T00:50:45.286Z,-0.31
2024-01-20T00:53:13.521Z,-0.30
2024-01-20T00:55:41.730Z,-0.29
2024-01-20T00:58:11.649Z,-0.28
2024-01-20T01:00:39.955Z,-0.27
2024-01-20T01:03:09.559Z,-0.28
2024-01-20T01:05:37.734Z,-0.31
2024-01-20T01:08:05.954Z,-0.33
2024-01-20T01:10:34.381Z,-0.34
2024-01-20T01:13:02.489Z,-0.35
2024-01-20T01:15:31.993Z,-0.35
2024-01-20T01:18:00.088Z,-0.36
2024-01-20T01:20:28.157Z,-0.37
2024-01-20T01:22:56.280Z,-0.39
2024-01-20T01:25:24.442Z,-0.41
2024-01-20T01:27:52.392Z,-0.44
2024-01-20T01:30:20.720Z,-0.44
2024-01-20T01:32:48.962Z,-0.44
2024-01-20T01:35:17.087Z,-0.46
2024-01-20T01:37:45.193Z,-0.44
2024-01-20T01:40:14.350Z,-0.46
2024-01-20T01:42:42.594Z,-0.47
2024-01-20T01:45:11.598Z,-0.49
2024-01-20T01:47:40.417Z,-0.49
2024-01-20T01:50:09.175Z,-0.47
2024-01-20T01:52:37.666Z,-0.49
2024-01-20T01:55:06.060Z,-0.52
2024-01-20T01:57:36.318Z,-0.53
2024-01-20T02:00:05.772Z,-0.54
2024-01-20T02:02:33.890Z,-0.54
2024-01-20T02:05:02.067Z,-0.54
2024-01-20T02:07:31.087Z,-0.53
2024-01-20T02:09:59.102Z,-0.54
2024-01-20T02:12:28.649Z,-0.54
2024-01-20T02:14:56.899Z,-0.54
2024-01-20T02:17:25.260Z,-0.54
2024-01-20T02:19:53.377Z,-0.54
2024-01-20T02:22:21.642Z,-0.54
2024-01-20T02:24:51.095Z,-0.53
2024-01-20T02:27:20.372Z,-0.54
2024-01-20T02:29:48.553Z,-0.56
2024-01-20T02:32:17.105Z,-0.56
2024-01-20T02:34:45.255Z,-0.57
2024-01-20T02:37:13.294Z,-0.59
2024-01-20T02:39:41.480Z,-0.60
2024-01-20T02:42:11.005Z,-0.61
2024-01-20T02:44:39.825Z,-0.63
2024-01-20T02:47:07.996Z,-0.67
2024-01-20T02:49:36.436Z,-0.65
2024-01-20T02:52:05.148Z,-0.66
2024-01-20T02:54:33.346Z,-0.65
2024-01-20T02:57:01.668Z,-0.65
2024-01-20T02:59:29.796Z,-0.65
2024-01-20T03:01:58.287Z,-0.63
2024-01-20T03:04:26.364Z,-0.60
2024-01-20T03:06:54.413Z,-0.56
2024-01-20T03:09:23.053Z,-0.53
2024-01-20T03:11:51.127Z,-0.49
2024-01-20T03:14:19.238Z,-0.43
2024-01-20T03:16:47.292Z,-0.41
2024-01-20T03:19:15.410Z,-0.36
2024-01-20T03:21:43.439Z,-0.28
2024-01-20T03:24:12.154Z,-0.22
2024-01-20T03:26:40.162Z,-0.20
2024-01-20T03:29:08.294Z,-0.15
2024-01-20T03:31:36.416Z,-0.14
2024-01-20T03:34:05.080Z,-0.15
2024-01-20T03:36:33.269Z,-0.13
2024-01-20T03:39:01.417Z,-0.10
2024-01-20T03:41:29.497Z,-0.10
2024-01-20T03:43:58.773Z,-0.07
2024-01-20T03:46:27.088Z,-0.06
2024-01-20T03:48:55.316Z,0.02
2024-01-20T03:51:28.293Z,0.03
2024-01-20T03:53:56.953Z,0.08
2024-01-20T03:56:25.087Z,0.09
2024-01-20T03:58:53.190Z,0.12
2024-01-20T04:01:21.390Z,0.14
2024-01-20T04:03:49.443Z,0.19
2024-01-20T04:06:42.715Z,0.21
2024-01-20T04:09:11.045Z,0.25
2024-01-20T04:11:39.140Z,0.27
2024-01-20T04:14:07.167Z,0.27
2024-01-20T04:16:35.326Z,0.30
2024-01-20T04:19:03.504Z,0.32
2024-01-20T04:21:31.517Z,0.33
2024-01-20T04:23:59.674Z,0.37
2024-01-20T04:26:27.861Z,0.40
2024-01-20T04:28:55.867Z,0.40
2024-01-20T04:31:23.845Z,0.40
2024-01-20T04:33:54.898Z,0.39
2024-01-20T04:36:23.309Z,0.39
2024-01-20T04:38:51.598Z,0.37
2024-01-20T04:41:19.603Z,0.36
2024-01-20T04:43:47.681Z,0.34
2024-01-20T04:46:15.672Z,0.39
2024-01-20T04:48:43.929Z,0.38
2024-01-20T04:51:12.571Z,0.37
2024-01-20T04:53:40.817Z,0.36
2024-01-20T04:56:09.089Z,0.39
2024-01-20T04:58:38.652Z,0.40
2024-01-20T05:01:07.082Z,0.42
2024-01-20T05:03:35.233Z,0.41
2024-01-20T05:06:03.455Z,0.37
2024-01-20T05:08:31.605Z,0.37
2024-01-20T05:10:59.605Z,0.38
2024-01-20T05:13:27.559Z,0.41
2024-01-20T05:15:55.777Z,0.39
2024-01-20T05:18:23.885Z,0.39
2024-01-20T05:20:51.944Z,0.39
2024-01-20T05:23:20.310Z,0.37
2024-01-20T05:25:48.806Z,0.38
2024-01-20T05:28:17.009Z,0.39
2024-01-20T05:30:45.266Z,0.38
2024-01-20T05:33:13.598Z,0.38
2024-01-20T05:35:41.966Z,0.36
2024-01-20T05:38:09.987Z,0.36
2024-01-20T05:40:38.014Z,0.35
2024-01-20T05:43:06.070Z,0.37
2024-01-20T05:45:34.265Z,0.39
2024-01-20T05:48:02.693Z,0.38
2024-01-20T05:50:30.720Z,0.37
2024-01-20T05:52:58.776Z,0.38
2024-01-20T05:55:26.787Z,0.39
2024-01-20T05:57:55.163Z,0.40
2024-01-20T06:00:23.564Z,0.43
2024-01-20T06:02:53.648Z,0.45
2024-01-20T06:05:21.811Z,0.45
2024-01-20T06:07:49.893Z,0.49
2024-01-20T06:10:17.998Z,0.46
2024-01-20T06:12:46.060Z,0.46
2024-01-20T06:15:14.197Z,0.45
2024-01-20T06:17:42.382Z,0.45
2024-01-20T06:20:10.875Z,0.50
2024-01-20T06:22:40.529Z,0.53
2024-01-20T06:25:08.748Z,0.57
2024-01-20T06:27:37.255Z,0.60
2024-01-20T06:30:05.935Z,0.61
2024-01-20T06:32:34.022Z,0.64
2024-01-20T06:35:02.267Z,0.63
2024-01-20T06:37:30.463Z,0.61
2024-01-20T06:39:58.590Z,0.66
2024-01-20T06:42:27.096Z,0.72
2024-01-20T06:44:57.237Z,0.71
2024-01-20T06:47:27.438Z,0.77
2024-01-20T06:49:55.564Z,0.75
2024-01-20T06:52:23.700Z,0.75
2024-01-20T06:54:51.933Z,0.78
2024-01-20T06:57:20.250Z,0.82
2024-01-20T06:59:48.348Z,0.82
2024-01-20T07:02:16.963Z,0.84
2024-01-20T07:04:45.378Z,0.89
2024-01-20T07:07:13.997Z,0.94
2024-01-20T07:09:42.078Z,0.95
2024-01-20T07:12:10.861Z,0.97
2024-01-20T07:14:39.273Z,1.02
2024-01-20T07:17:07.419Z,1.04
2024-01-20T07:19:35.817Z,1.09
2024-01-20T07:22:04.186Z,1.09
2024-01-20T07:24:32.607Z,1.10
2024-01-20T07:27:00.831Z,1.23
2024-01-20T07:29:28.937Z,1.33
2024-01-20T07:31:57.093Z,1.40
2024-01-20T07:34:25.296Z,1.42
2024-01-20T07:36:53.449Z,1.42
2024-01-20T07:39:21.693Z,1.41
2024-01-20T07:41:49.790Z,1.37
2024-01-20T07:44:17.881Z,1.29
2024-01-20T07:46:46.055Z,1.20
2024-01-20T07:49:15.598Z,1.21
2024-01-20T07:51:43.791Z,1.17
2024-01-20T07:54:13.618Z,1.20
2024-01-20T07:56:41.942Z,1.22
2024-01-20T07:59:10.295Z,1.27
2024-01-20T08:01:39.669Z,1.29
2024-01-20T08:04:08.761Z,1.35
2024-01-20T08:06:37.705Z,1.36
2024-01-20T08:09:06.105Z,1.32
2024-01-20T08:11:34.186Z,1.37
2024-01-20T08:14:02.410Z,1.38
2024-01-20T08:16:30.749Z,1.40
2024-01-20T08:18:59.448Z,1.44
2024-01-20T08:21:27.713Z,1.52
2024-01-20T08:23:56.496Z,1.68
2024-01-20T08:26:24.629Z,1.78
2024-01-20T08:28:52.927Z,1.84
2024-01-20T08:31:21.115Z,1.82
2024-01-20T08:33:49.399Z,1.77
2024-01-20T08:36:17.767Z,1.76
2024-01-20T08:38:45.901Z,1.74
2024-01-20T08:41:14.014Z,1.74
2024-01-20T08:43:43.330Z,1.79
2024-01-20T08:46:13.660Z,1.86
2024-01-20T08:48:43.272Z,1.90
2024-01-20T08:51:11.510Z,2.07
2024-01-20T08:53:40.929Z,2.14
2024-01-20T08:56:09.762Z,2.00
2024-01-20T08:58:37.978Z,1.87
2024-01-20T09:01:07.998Z,1.77
2024-01-20T09:03:36.413Z,1.74
2024-01-20T09:06:05.137Z,1.76
2024-01-20T09:08:33.210Z,1.75
2024-01-20T09:11:01.354Z,1.70
2024-01-20T09:13:29.426Z,1.68
2024-01-20T09:15:57.853Z,1.61
2024-01-20T09:18:26.980Z,1.68
2024-01-20T09:20:55.443Z,1.92
2024-01-20T09:23:23.486Z,2.05
2024-01-20T09:25:51.713Z,2.16
2024-01-20T09:28:19.714Z,2.30
2024-01-20T09:30:47.903Z,2.32
2024-01-20T09:33:16.327Z,2.29
2024-01-20T09:35:46.386Z,2.26
2024-01-20T09:38:14.581Z,2.09
2024-01-20T09:40:42.990Z,1.93
2024-01-20T09:43:11.622Z,1.89
2024-01-20T09:45:41.681Z,1.90
2024-01-20T09:48:11.040Z,2.01
2024-01-20T09:50:39.470Z,2.02
2024-01-20T09:53:18.672Z,2.03
2024-01-20T09:55:47.589Z,2.12
2024-01-20T09:58:18.534Z,2.21
2024-01-20T10:00:49.029Z,2.12
2024-01-20T10:03:18.701Z,2.33
2024-01-20T10:05:47.985Z,2.61
2024-01-20T10:08:16.137Z,2.82
2024-01-20T10:10:45.046Z,2.74
2024-01-20T10:13:14.751Z,2.61
2024-01-20T10:15:42.917Z,2.46
2024-01-20T10:18:14.097Z,2.47
2024-01-20T10:20:43.492Z,2.50
2024-01-20T10:23:12.769Z,2.57
2024-01-20T10:25:40.876Z,2.57
2024-01-20T10:28:09.144Z,2.60
2024-01-20T10:30:40.182Z,2.66
2024-01-20T10:33:11.070Z,2.62
2024-01-20T10:35:40.345Z,2.56
2024-01-20T10:38:14.120Z,2.49
2024-01-20T10:40:44.596Z,2.42
2024-01-20T10:43:16.663Z,2.45
2024-01-20T10:46:13.098Z,2.56
2024-01-20T10:48:49.581Z,2.67
2024-01-20T10:51:24.106Z,2.67
2024-01-20T10:53:53.157Z,2.60
2024-01-20T10:56:21.753Z,2.56
2024-01-20T10:58:57.912Z,2.50
2024-01-20T11:01:26.723Z,2.47
2024-01-20T11:03:55.421Z,2.42
2024-01-20T11:06:26.565Z,2.39
2024-01-20T11:08:54.924Z,2.39
2024-01-20T11:11:30.516Z,2.34
2024-01-20T11:14:03.167Z,2.31
2024-01-20T11:16:38.303Z,2.36
2024-01-20T11:19:13.681Z,2.39
2024-01-20T11:21:42.194Z,2.41
2024-01-20T11:24:11.999Z,2.47
2024-01-20T11:26:41.200Z,2.54
2024-01-20T11:29:09.962Z,2.48
2024-01-20T11:31:38.315Z,2.50
2024-01-20T11:34:07.703Z,2.62
2024-01-20T11:36:36.655Z,2.65
2024-01-20T11:39:07.240Z,2.60
2024-01-20T11:41:35.689Z,2.54
2024-01-20T11:44:03.711Z,2.32
2024-01-20T11:46:31.886Z,2.24
2024-01-20T11:49:00.365Z,2.22
2024-01-20T11:51:29.291Z,2.34
2024-01-20T11:53:57.376Z,2.48
2024-01-20T11:56:26.273Z,2.63
2024-01-20T11:58:54.456Z,2.73
2024-01-20T12:01:22.780Z,2.73
2024-01-20T12:03:51.016Z,2.69
2024-01-20T12:06:19.373Z,2.53
2024-01-20T12:08:47.746Z,2.46
2024-01-20T12:11:23.374Z,2.38
2024-01-20T12:13:51.882Z,2.30
2024-01-20T12:16:20.207Z,2.28
2024-01-20T12:18:48.594Z,2.14
2024-01-20T12:21:17.396Z,2.18
2024-01-20T12:23:48.012Z,2.08
2024-01-20T12:26:17.770Z,1.97
2024-01-20T12:28:48.133Z,1.93
2024-01-20T12:31:19.219Z,1.88
2024-01-20T12:33:50.885Z,1.87
2024-01-20T12:36:20.442Z,1.79
2024-01-20T12:38:49.347Z,1.75
2024-01-20T12:41:17.751Z,1.77
2024-01-20T12:43:49.994Z,1.75
2024-01-20T12:46:19.355Z,1.76
2024-01-20T12:48:47.386Z,1.69
2024-01-20T12:51:16.504Z,1.68
2024-01-20T12:53:45.187Z,1.63
2024-01-20T12:56:13.432Z,1.61
2024-01-20T12:58:42.472Z,1.54
2024-01-20T13:01:10.440Z,1.50
2024-01-20T13:03:38.908Z,1.42
2024-01-20T13:06:07.163Z,1.35
2024-01-20T13:08:36.172Z,1.32
2024-01-20T13:11:04.755Z,1.26
2024-01-20T13:13:33.836Z,1.23
2024-01-20T13:16:02.286Z,1.17
2024-01-20T13:18:32.299Z,1.18
2024-01-20T13:21:00.689Z,1.23
2024-01-20T13:23:28.753Z,1.25
2024-01-20T13:25:56.963Z,1.17
2024-01-20T13:28:25.146Z,1.17
2024-01-20T13:30:53.611Z,1.16
2024-01-20T13:33:24.213Z,1.12
2024-01-20T13:35:53.484Z,1.10
2024-01-20T13:38:21.471Z,1.07
2024-01-20T13:40:52.234Z,1.05
2024-01-20T13:43:20.197Z,1.04
2024-01-20T13:45:48.276Z,1.07
2024-01-20T13:48:16.374Z,1.07
2024-01-20T13:50:44.420Z,1.08
2024-01-20T13:53:12.331Z,1.07
2024-01-20T13:55:40.469Z,1.08
2024-01-20T13:58:08.860Z,1.07
2024-01-20T14:00:36.884Z,1.05
2024-01-20T14:03:05.271Z,1.04
2024-01-20T14:05:33.596Z,1.06
2024-01-20T14:08:01.610Z,1.03
2024-01-20T14:10:32.078Z,1.04
2024-01-20T14:13:03.513Z,1.04
2024-01-20T14:15:46.568Z,1.06
2024-01-20T14:18:15.314Z,1.04
2024-01-20T14:20:43.391Z,1.04
2024-01-20T14:23:12.520Z,1.05
2024-01-20T14:25:42.924Z,1.03
2024-01-20T14:28:10.931Z,1.00
2024-01-20T14:30:48.007Z,1.00
2024-01-20T14:33:27.070Z,1.01
2024-01-20T14:35:54.996Z,1.01
2024-01-20T14:38:22.867Z,1.02
2024-01-20T14:40:51.124Z,1.02
2024-01-20T14:43:19.081Z,1.01
2024-01-20T14:45:47.120Z,0.99
2024-01-20T14:48:15.615Z,0.99
2024-01-20T14:50:45.756Z,0.98
2024-01-20T14:53:13.703Z,0.98
2024-01-20T14:55:44.185Z,0.97
2024-01-20T14:58:12.239Z,0.99
2024-01-20T15:00:42.331Z,0.99
2024-01-20T15:03:57.977Z,0.99
2024-01-20T15:06:32.978Z,1.01
2024-01-20T15:09:08.494Z,1.02
2024-01-20T15:11:39.842Z,1.04
2024-01-20T15:14:09.558Z,1.06
2024-01-20T15:16:37.801Z,1.06
2024-01-20T15:19:07.766Z,1.07
2024-01-20T15:21:36.421Z,1.06
2024-01-20T15:24:04.763Z,1.04
2024-01-20T15:26:34.256Z,1.08
2024-01-20T15:29:20.238Z,1.10
2024-01-20T15:31:53.052Z,1.14
2024-01-20T15:34:22.183Z,1.17
2024-01-20T15:36:52.255Z,1.20
2024-01-20T15:39:20.297Z,1.23
2024-01-20T15:41:48.437Z,1.25
2024-01-20T15:44:17.525Z,1.28
2024-01-20T15:46:48.086Z,1.32
2024-01-20T15:49:18.876Z,1.34
2024-01-20T15:51:51.084Z,1.36
2024-01-20T15:54:19.797Z,1.39
2024-01-20T15:56:50.827Z,1.37
2024-01-20T15:59:24.473Z,1.37
2024-01-20T16:01:53.332Z,1.38
2024-01-20T16:04:21.476Z,1.41
2024-01-20T16:06:49.769Z,1.45
2024-01-20T16:09:18.715Z,1.47
2024-01-20T16:11:51.840Z,1.53
2024-01-20T16:14:27.830Z,1.56
2024-01-20T16:16:55.749Z,1.56
2024-01-20T16:19:24.360Z,1.57
2024-01-20T16:21:54.744Z,1.53
2024-01-20T16:24:23.356Z,1.53
2024-01-20T16:26:51.801Z,1.50
2024-01-20T16:29:21.194Z,1.49
2024-01-20T16:31:51.217Z,1.45
2024-01-20T16:34:23.467Z,1.43
2024-01-20T16:36:52.570Z,1.38
2024-01-20T16:39:20.723Z,1.34
2024-01-20T16:41:48.552Z,1.32
2024-01-20T16:44:16.476Z,1.30
2024-01-20T16:46:52.590Z,1.25
2024-01-20T16:49:21.891Z,1.20
2024-01-20T16:51:50.389Z,1.20
2024-01-20T16:54:18.669Z,1.18
2024-01-20T16:56:46.606Z,1.16
2024-01-20T16:59:14.445Z,1.13
2024-01-20T17:01:42.510Z,1.12
2024-01-20T17:04:10.588Z,1.12
2024-01-20T17:06:39.244Z,1.11
2024-01-20T17:09:07.198Z,1.08
2024-01-20T17:11:35.312Z,1.07
2024-01-20T17:14:04.889Z,1.04
2024-01-20T17:16:36.028Z,1.01
2024-01-20T17:19:05.131Z,1.01
2024-01-20T17:21:35.884Z,0.99
2024-01-20T17:24:07.528Z,0.98
2024-01-20T17:26:35.464Z,0.98
2024-01-20T17:29:03.877Z,0.96
2024-01-20T17:31:34.958Z,0.94
2024-01-20T17:34:04.855Z,0.94
2024-01-20T17:36:33.643Z,0.93
2024-01-20T17:39:01.762Z,0.94
2024-01-20T17:41:29.763Z,0.93
2024-01-20T17:43:57.737Z,0.89
2024-01-20T17:46:25.554Z,0.89
2024-01-20T17:48:53.457Z,0.87
2024-01-20T17:51:21.793Z,0.87
2024-01-20T17:53:49.625Z,0.86
2024-01-20T17:56:17.796Z,0.84
2024-01-20T17:58:46.090Z,0.85
2024-01-20T18:01:14.030Z,0.83
2024-01-20T18:03:42.101Z,0.82
2024-01-20T18:06:10.451Z,0.80
2024-01-20T18:08:39.107Z,0.78
2024-01-20T18:11:07.178Z,0.78
2024-01-20T18:13:36.587Z,0.79
2024-01-20T18:16:05.684Z,0.77
2024-01-20T18:18:35.947Z,0.77
2024-01-20T18:21:04.676Z,0.78
2024-01-20T18:23:32.906Z,0.79
2024-01-20T18:26:01.058Z,0.78
2024-01-20T18:28:29.201Z,0.78
2024-01-20T18:30:57.390Z,0.80
2024-01-20T18:33:26.731Z,0.77
2024-01-20T18:35:55.068Z,0.77
2024-01-20T18:38:23.985Z,0.75
2024-01-20T18:40:52.023Z,0.72
2024-01-20T18:43:20.179Z,0.67
2024-01-20T18:45:48.257Z,0.68
2024-01-20T18:48:16.562Z,0.64
2024-01-20T18:50:45.977Z,0.61
2024-01-20T18:53:14.474Z,0.59
2024-01-20T18:55:43.099Z,0.60
2024-01-20T18:58:13.339Z,0.57
2024-01-20T19:00:41.455Z,0.57
2024-01-20T19:03:10.201Z,0.56
2024-01-20T19:05:39.303Z,0.55
2024-01-20T19:08:07.779Z,0.55
2024-01-20T19:10:36.015Z,0.55
2024-01-20T19:13:04.140Z,0.53
2024-01-20T19:15:32.727Z,0.53
2024-01-20T19:18:00.868Z,0.54
2024-01-20T19:20:29.171Z,0.53
2024-01-20T19:22:57.308Z,0.54
2024-01-20T19:25:25.364Z,0.53
2024-01-20T19:27:54.066Z,0.53
2024-01-20T19:30:22.378Z,0.51
2024-01-20T19:32:51.022Z,0.50
2024-01-20T19:35:20.606Z,0.49
2024-01-20T19:37:49.337Z,0.48
2024-01-20T19:40:17.610Z,0.47
2024-01-20T19:42:45.755Z,0.47
2024-01-20T19:45:14.624Z,0.47
2024-01-20T19:47:42.748Z,0.47
2024-01-20T19:50:11.852Z,0.49
2024-01-20T19:52:40.172Z,0.49
2024-01-20T19:55:09.623Z,0.50
2024-01-20T19:57:38.014Z,0.51
2024-01-20T20:00:07.053Z,0.54
2024-01-20T20:02:41.065Z,0.54
2024-01-20T20:05:09.074Z,0.54
2024-01-20T20:07:37.726Z,0.55
2024-01-20T20:10:06.648Z,0.56
2024-01-20T20:12:34.788Z,0.55
2024-01-20T20:15:04.557Z,0.55
2024-01-20T20:17:33.952Z,0.56
2024-01-20T20:20:02.562Z,0.55
2024-01-20T20:22:30.791Z,0.55
2024-01-20T20:24:58.855Z,0.54
2024-01-20T20:27:27.788Z,0.54
2024-01-20T20:29:56.569Z,0.55
2024-01-20T20:32:26.153Z,0.57
2024-01-20T20:34:54.672Z,0.55
2024-01-20T20:37:22.941Z,0.55
2024-01-20T20:39:51.396Z,0.54
2024-01-20T20:42:26.151Z,0.53
2024-01-20T20:44:55.265Z,0.56
2024-01-20T20:47:28.107Z,0.56
2024-01-20T20:49:57.124Z,0.55
2024-01-20T20:52:30.679Z,0.55
2024-01-20T20:54:58.865Z,0.56
2024-01-20T20:57:26.932Z,0.57
2024-01-20T20:59:57.951Z,0.58
2024-01-20T21:02:31.406Z,0.56
2024-01-20T21:04:59.637Z,0.56
2024-01-20T21:07:31.710Z,0.56
2024-01-20T21:10:00.799Z,0.54
2024-01-20T21:12:29.460Z,0.53
2024-01-20T21:14:58.150Z,0.52
2024-01-20T21:17:28.637Z,0.49
2024-01-20T21:19:57.034Z,0.47
2024-01-20T21:22:25.483Z,0.42
2024-01-20T21:24:53.481Z,0.36
2024-01-20T21:27:23.335Z,0.30
2024-01-20T21:29:51.393Z,0.24
2024-01-20T21:32:22.118Z,0.20
2024-01-20T21:34:50.605Z,0.18
2024-01-20T21:37:18.918Z,0.18
2024-01-20T21:39:47.026Z,0.18
2024-01-20T21:42:17.908Z,0.20
2024-01-20T21:44:46.427Z,0.22
2024-01-20T21:47:14.480Z,0.25
2024-01-20T21:49:42.626Z,0.28
2024-01-20T21:52:10.931Z,0.31
2024-01-20T21:54:39.047Z,0.33
2024-01-20T21:57:07.344Z,0.36
2024-01-20T21:59:35.417Z,0.38
2024-01-20T22:02:04.719Z,0.39
2024-01-20T22:04:32.746Z,0.41
2024-01-20T22:07:00.901Z,0.42
2024-01-20T22:09:28.906Z,0.46
2024-01-20T22:11:56.927Z,0.47
2024-01-20T22:14:24.919Z,0.48
2024-01-20T22:16:53.610Z,0.48
2024-01-20T22:19:21.742Z,0.49
2024-01-20T22:21:49.787Z,0.51
2024-01-20T22:24:17.855Z,0.53
2024-01-20T22:26:46.466Z,0.54
2024-01-20T22:29:23.407Z,0.56
2024-01-20T22:31:56.413Z,0.57
2024-01-20T22:34:30.916Z,0.59
2024-01-20T22:37:00.540Z,0.61
2024-01-20T22:39:28.872Z,0.62
2024-01-20T22:41:57.093Z,0.63
2024-01-20T22:44:25.176Z,0.64
2024-01-20T22:46:53.463Z,0.65
2024-01-20T22:49:22.943Z,0.67
2024-01-20T22:51:51.376Z,0.68
2024-01-20T22:54:23.617Z,0.69
2024-01-20T22:56:52.593Z,0.69
2024-01-20T22:59:20.661Z,0.69
2024-01-20T23:01:48.703Z,0.69
2024-01-20T23:04:17.006Z,0.69
2024-01-20T23:06:46.955Z,0.70
2024-01-20T23:09:15.040Z,0.70
2024-01-20T23:11:43.108Z,0.71
2024-01-20T23:14:12.097Z,0.72
2024-01-20T23:16:40.560Z,0.73
2024-01-20T23:19:09.316Z,0.73
2024-01-20T23:21:37.426Z,0.73
2024-01-20T23:24:05.921Z,0.74
2024-01-20T23:26:33.971Z,0.73
2024-01-20T23:29:02.481Z,0.72
2024-01-20T23:31:30.455Z,0.71
2024-01-20T23:33:58.680Z,0.71
2024-01-20T23:36:26.857Z,0.71
2024-01-20T23:38:54.849Z,0.71
2024-01-20T23:41:23.057Z,0.70
2024-01-20T23:43:51.036Z,0.69
2024-01-20T23:46:19.045Z,0.70
2024-01-20T23:48:47.048Z,0.70
2024-01-20T23:51:15.280Z,0.70
2024-01-20T23:53:43.427Z,0.71
2024-01-20T23:56:12.031Z,0.71
2024-01-20T23:58:40.194Z,0.70
